sensor_id;sensor_type;location;lat;lon;timestamp;temperature;humidity
16283;DHT22;8249;48.708;9.030;2022-08-21T00:00:53;14.90;99.90
16283;DHT22;8249;48.708;9.030;2022-08-21T00:03:20;14.80;99.90
16283;DHT22;8249;48.708;9.030;2022-08-21T00:05:48;14.80;99.90
16283;DHT22;8249;48.708;9.030;2022-08-21T00:08:16;14.80;99.90
16283;DHT22;8249;48.708;9.030;2022-08-21T00:10:43;14.80;99.90
16283;DHT22;8249;48.708;9.030;2022-08-21T00:13:13;14.80;99.90
16283;DHT22;8249;48.708;9.030;2022-08-21T00:15:41;14.70;99.90
16283;DHT22;8249;48.708;9.030;2022-08-21T00:18:09;14.70;99.90
16283;DHT22;8249;48.708;9.030;2022-08-21T00:20:39;14.70;99.90
16283;DHT22;8249;48.708;9.030;2022-08-21T00:23:06;14.70;99.90
16283;DHT22;8249;48.708;9.030;2022-08-21T00:25:33;14.60;99.90
16283;DHT22;8249;48.708;9.030;2022-08-21T00:28:00;14.60;99.90
16283;DHT22;8249;48.708;9.030;2022-08-21T00:30:30;14.60;99.90
16283;DHT22;8249;48.708;9.030;2022-08-21T00:32:57;14.60;99.90
16283;DHT22;8249;48.708;9.030;2022-08-21T00:35:27;14.50;99.90
16283;DHT22;8249;48.708;9.030;2022-08-21T00:37:54;14.50;99.90
16283;DHT22;8249;48.708;9.030;2022-08-21T00:40:24;14.40;99.90
16283;DHT22;8249;48.708;9.030;2022-08-21T00:42:52;14.40;99.90
16283;DHT22;8249;48.708;9.030;2022-08-21T00:45:20;14.40;99.90
16283;DHT22;8249;48.708;9.030;2022-08-21T00:47:48;14.30;99.90
16283;DHT22;8249;48.708;9.030;2022-08-21T00:50:16;14.30;99.90
16283;DHT22;8249;48.708;9.030;2022-08-21T00:52:43;14.30;99.90
16283;DHT22;8249;48.708;9.030;2022-08-21T00:55:12;14.30;99.90
16283;DHT22;8249;48.708;9.030;2022-08-21T00:57:43;14.30;99.90
16283;DHT22;8249;48.708;9.030;2022-08-21T01:00:17;14.30;99.90
16283;DHT22;8249;48.708;9.030;2022-08-21T01:02:45;14.20;99.90
16283;DHT22;8249;48.708;9.030;2022-08-21T01:05:14;14.20;99.90
16283;DHT22;8249;48.708;9.030;2022-08-21T01:07:42;14.20;99.90
16283;DHT22;8249;48.708;9.030;2022-08-21T01:10:11;14.20;99.90
16283;DHT22;8249;48.708;9.030;2022-08-21T01:12:40;14.20;99.90
16283;DHT22;8249;48.708;9.030;2022-08-21T01:15:09;14.10;99.90
16283;DHT22;8249;48.708;9.030;2022-08-21T01:17:37;14.10;99.90
16283;DHT22;8249;48.708;9.030;2022-08-21T01:20:07;14.10;99.90
16283;DHT22;8249;48.708;9.030;2022-08-21T01:22:36;14.10;99.90
16283;DHT22;8249;48.708;9.030;2022-08-21T01:25:05;14.10;99.90
16283;DHT22;8249;48.708;9.030;2022-08-21T01:27:32;14.10;99.90
16283;DHT22;8249;48.708;9.030;2022-08-21T01:30:04;14.00;99.90
16283;DHT22;8249;48.708;9.030;2022-08-21T01:32:34;14.00;99.90
16283;DHT22;8249;48.708;9.030;2022-08-21T01:35:02;14.00;99.90
16283;DHT22;8249;48.708;9.030;2022-08-21T01:37:30;14.00;99.90
16283;DHT22;8249;48.708;9.030;2022-08-21T01:39:58;13.90;99.90
16283;DHT22;8249;48.708;9.030;2022-08-21T01:42:25;13.90;99.90
16283;DHT22;8249;48.708;9.030;2022-08-21T01:44:52;13.90;99.90
16283;DHT22;8249;48.708;9.030;2022-08-21T01:47:19;13.90;99.90
16283;DHT22;8249;48.708;9.030;2022-08-21T01:49:46;13.90;99.90
16283;DHT22;8249;48.708;9.030;2022-08-21T01:52:14;13.90;99.90
16283;DHT22;8249;48.708;9.030;2022-08-21T01:54:41;13.90;99.90
16283;DHT22;8249;48.708;9.030;2022-08-21T01:57:10;13.80;99.90
16283;DHT22;8249;48.708;9.030;2022-08-21T01:59:38;13.80;99.90
16283;DHT22;8249;48.708;9.030;2022-08-21T02:02:06;13.80;99.90
16283;DHT22;8249;48.708;9.030;2022-08-21T02:04:33;13.80;99.90
16283;DHT22;8249;48.708;9.030;2022-08-21T02:07:00;13.70;99.90
16283;DHT22;8249;48.708;9.030;2022-08-21T02:09:27;13.70;99.90
16283;DHT22;8249;48.708;9.030;2022-08-21T02:11:55;13.70;99.90
16283;DHT22;8249;48.708;9.030;2022-08-21T02:14:23;13.60;99.90
16283;DHT22;8249;48.708;9.030;2022-08-21T02:16:50;13.60;99.90
16283;DHT22;8249;48.708;9.030;2022-08-21T02:19:17;13.50;99.90
16283;DHT22;8249;48.708;9.030;2022-08-21T02:21:44;13.50;99.90
16283;DHT22;8249;48.708;9.030;2022-08-21T02:24:11;13.50;99.90
16283;DHT22;8249;48.708;9.030;2022-08-21T02:26:38;13.50;99.90
16283;DHT22;8249;48.708;9.030;2022-08-21T02:29:05;13.40;99.90
16283;DHT22;8249;48.708;9.030;2022-08-21T02:31:34;13.40;99.90
16283;DHT22;8249;48.708;9.030;2022-08-21T02:34:01;13.40;99.90
16283;DHT22;8249;48.708;9.030;2022-08-21T02:36:28;13.40;99.90
16283;DHT22;8249;48.708;9.030;2022-08-21T02:38:55;13.40;99.90
16283;DHT22;8249;48.708;9.030;2022-08-21T02:41:22;13.40;99.90
16283;DHT22;8249;48.708;9.030;2022-08-21T02:43:49;13.30;99.90
16283;DHT22;8249;48.708;9.030;2022-08-21T02:46:18;13.30;99.90
16283;DHT22;8249;48.708;9.030;2022-08-21T02:48:47;13.30;99.90
16283;DHT22;8249;48.708;9.030;2022-08-21T02:51:16;13.30;99.90
16283;DHT22;8249;48.708;9.030;2022-08-21T02:53:45;13.30;99.90
16283;DHT22;8249;48.708;9.030;2022-08-21T02:56:15;13.30;99.90
16283;DHT22;8249;48.708;9.030;2022-08-21T02:58:44;13.30;99.90
16283;DHT22;8249;48.708;9.030;2022-08-21T03:01:11;13.30;99.90
16283;DHT22;8249;48.708;9.030;2022-08-21T03:03:40;13.30;99.90
16283;DHT22;8249;48.708;9.030;2022-08-21T03:06:10;13.20;99.90
16283;DHT22;8249;48.708;9.030;2022-08-21T03:08:38;13.20;99.90
16283;DHT22;8249;48.708;9.030;2022-08-21T03:11:06;13.20;99.90
16283;DHT22;8249;48.708;9.030;2022-08-21T03:13:33;13.20;99.90
16283;DHT22;8249;48.708;9.030;2022-08-21T03:16:00;13.10;99.90
16283;DHT22;8249;48.708;9.030;2022-08-21T03:18:27;13.10;99.90
16283;DHT22;8249;48.708;9.030;2022-08-21T03:20:54;13.10;99.90
16283;DHT22;8249;48.708;9.030;2022-08-21T03:23:23;13.10;99.90
16283;DHT22;8249;48.708;9.030;2022-08-21T03:25:50;13.10;99.90
16283;DHT22;8249;48.708;9.030;2022-08-21T03:28:19;13.10;99.90
16283;DHT22;8249;48.708;9.030;2022-08-21T03:30:50;13.00;99.90
16283;DHT22;8249;48.708;9.030;2022-08-21T03:33:18;13.00;99.90
16283;DHT22;8249;48.708;9.030;2022-08-21T03:35:52;12.90;99.90
16283;DHT22;8249;48.708;9.030;2022-08-21T03:38:23;12.90;99.90
16283;DHT22;8249;48.708;9.030;2022-08-21T03:40:50;12.90;99.90
16283;DHT22;8249;48.708;9.030;2022-08-21T03:43:17;12.90;99.90
16283;DHT22;8249;48.708;9.030;2022-08-21T03:45:43;12.90;99.90
16283;DHT22;8249;48.708;9.030;2022-08-21T03:48:11;12.80;99.90
16283;DHT22;8249;48.708;9.030;2022-08-21T03:50:40;12.90;99.90
16283;DHT22;8249;48.708;9.030;2022-08-21T03:53:08;12.80;99.90
16283;DHT22;8249;48.708;9.030;2022-08-21T03:55:37;12.80;99.90
16283;DHT22;8249;48.708;9.030;2022-08-21T03:58:04;12.80;99.90
16283;DHT22;8249;48.708;9.030;2022-08-21T04:00:32;12.70;99.90
16283;DHT22;8249;48.708;9.030;2022-08-21T04:02:59;12.70;99.90
16283;DHT22;8249;48.708;9.030;2022-08-21T04:05:26;12.70;99.90
16283;DHT22;8249;48.708;9.030;2022-08-21T04:07:57;12.70;99.90
16283;DHT22;8249;48.708;9.030;2022-08-21T04:10:25;12.70;99.90
16283;DHT22;8249;48.708;9.030;2022-08-21T04:12:54;12.70;99.90
16283;DHT22;8249;48.708;9.030;2022-08-21T04:15:23;12.70;99.90
16283;DHT22;8249;48.708;9.030;2022-08-21T04:17:51;12.60;99.90
16283;DHT22;8249;48.708;9.030;2022-08-21T04:20:18;12.60;99.90
16283;DHT22;8249;48.708;9.030;2022-08-21T04:22:47;12.50;99.90
16283;DHT22;8249;48.708;9.030;2022-08-21T04:25:15;12.50;99.90
16283;DHT22;8249;48.708;9.030;2022-08-21T04:27:42;12.50;99.90
16283;DHT22;8249;48.708;9.030;2022-08-21T04:30:11;12.50;99.90
16283;DHT22;8249;48.708;9.030;2022-08-21T04:32:42;12.50;99.90
16283;DHT22;8249;48.708;9.030;2022-08-21T04:35:11;12.50;99.90
16283;DHT22;8249;48.708;9.030;2022-08-21T04:37:38;12.50;99.90
16283;DHT22;8249;48.708;9.030;2022-08-21T04:40:06;12.50;99.90
16283;DHT22;8249;48.708;9.030;2022-08-21T04:42:41;12.50;99.90
16283;DHT22;8249;48.708;9.030;2022-08-21T04:45:18;12.60;99.90
16283;DHT22;8249;48.708;9.030;2022-08-21T04:47:48;12.60;99.90
16283;DHT22;8249;48.708;9.030;2022-08-21T04:50:16;12.60;99.90
16283;DHT22;8249;48.708;9.030;2022-08-21T04:53:02;12.60;99.90
16283;DHT22;8249;48.708;9.030;2022-08-21T04:55:30;12.60;99.90
16283;DHT22;8249;48.708;9.030;2022-08-21T04:57:57;12.60;99.90
16283;DHT22;8249;48.708;9.030;2022-08-21T05:00:25;12.60;99.90
16283;DHT22;8249;48.708;9.030;2022-08-21T05:02:54;12.70;99.90
16283;DHT22;8249;48.708;9.030;2022-08-21T05:05:24;12.70;99.90
16283;DHT22;8249;48.708;9.030;2022-08-21T05:07:52;12.80;99.90
16283;DHT22;8249;48.708;9.030;2022-08-21T05:10:20;12.70;99.90
16283;DHT22;8249;48.708;9.030;2022-08-21T05:12:47;12.70;99.90
16283;DHT22;8249;48.708;9.030;2022-08-21T05:15:15;12.80;99.90
16283;DHT22;8249;48.708;9.030;2022-08-21T05:17:44;12.90;99.90
16283;DHT22;8249;48.708;9.030;2022-08-21T05:20:12;13.00;99.90
16283;DHT22;8249;48.708;9.030;2022-08-21T05:22:39;13.00;99.90
16283;DHT22;8249;48.708;9.030;2022-08-21T05:25:08;13.00;99.90
16283;DHT22;8249;48.708;9.030;2022-08-21T05:27:35;13.00;99.90
16283;DHT22;8249;48.708;9.030;2022-08-21T05:30:04;13.00;99.90
16283;DHT22;8249;48.708;9.030;2022-08-21T05:32:31;13.10;99.90
16283;DHT22;8249;48.708;9.030;2022-08-21T05:34:59;13.20;99.90
16283;DHT22;8249;48.708;9.030;2022-08-21T05:37:26;13.20;99.90
16283;DHT22;8249;48.708;9.030;2022-08-21T05:39:53;13.30;99.90
16283;DHT22;8249;48.708;9.030;2022-08-21T05:42:20;13.40;99.90
16283;DHT22;8249;48.708;9.030;2022-08-21T05:44:47;13.50;99.90
16283;DHT22;8249;48.708;9.030;2022-08-21T05:47:14;13.50;99.90
16283;DHT22;8249;48.708;9.030;2022-08-21T05:49:41;13.70;99.90
16283;DHT22;8249;48.708;9.030;2022-08-21T05:52:09;13.70;99.90
16283;DHT22;8249;48.708;9.030;2022-08-21T05:54:37;13.90;99.90
16283;DHT22;8249;48.708;9.030;2022-08-21T05:57:04;14.00;99.90
16283;DHT22;8249;48.708;9.030;2022-08-21T05:59:31;14.10;99.90
16283;DHT22;8249;48.708;9.030;2022-08-21T06:01:58;14.30;99.90
16283;DHT22;8249;48.708;9.030;2022-08-21T06:04:25;14.40;99.90
16283;DHT22;8249;48.708;9.030;2022-08-21T06:06:52;14.50;99.90
16283;DHT22;8249;48.708;9.030;2022-08-21T06:09:20;14.50;99.90
16283;DHT22;8249;48.708;9.030;2022-08-21T06:11:47;14.60;99.90
16283;DHT22;8249;48.708;9.030;2022-08-21T06:14:15;14.70;99.90
16283;DHT22;8249;48.708;9.030;2022-08-21T06:16:42;14.80;99.90
16283;DHT22;8249;48.708;9.030;2022-08-21T06:19:09;14.90;99.90
16283;DHT22;8249;48.708;9.030;2022-08-21T06:21:36;15.00;99.90
16283;DHT22;8249;48.708;9.030;2022-08-21T06:24:04;15.10;99.90
16283;DHT22;8249;48.708;9.030;2022-08-21T06:26:33;15.20;99.90
16283;DHT22;8249;48.708;9.030;2022-08-21T06:29:00;15.40;99.90
16283;DHT22;8249;48.708;9.030;2022-08-21T06:31:28;15.50;99.90
16283;DHT22;8249;48.708;9.030;2022-08-21T06:33:55;15.70;99.90
16283;DHT22;8249;48.708;9.030;2022-08-21T06:36:23;15.80;99.90
16283;DHT22;8249;48.708;9.030;2022-08-21T06:38:50;15.90;99.90
16283;DHT22;8249;48.708;9.030;2022-08-21T06:41:18;16.10;99.90
16283;DHT22;8249;48.708;9.030;2022-08-21T06:43:46;16.30;99.90
16283;DHT22;8249;48.708;9.030;2022-08-21T06:46:13;16.40;99.90
16283;DHT22;8249;48.708;9.030;2022-08-21T06:48:40;16.50;99.90
16283;DHT22;8249;48.708;9.030;2022-08-21T06:51:07;16.70;99.90
16283;DHT22;8249;48.708;9.030;2022-08-21T06:53:34;16.80;99.90
16283;DHT22;8249;48.708;9.030;2022-08-21T06:56:02;17.00;99.90
16283;DHT22;8249;48.708;9.030;2022-08-21T06:58:29;17.10;99.90
16283;DHT22;8249;48.708;9.030;2022-08-21T07:00:58;17.30;99.90
16283;DHT22;8249;48.708;9.030;2022-08-21T07:03:28;17.40;99.90
16283;DHT22;8249;48.708;9.030;2022-08-21T07:05:55;17.60;99.90
16283;DHT22;8249;48.708;9.030;2022-08-21T07:08:24;17.80;99.90
16283;DHT22;8249;48.708;9.030;2022-08-21T07:10:53;18.00;99.90
16283;DHT22;8249;48.708;9.030;2022-08-21T07:13:20;18.10;99.90
16283;DHT22;8249;48.708;9.030;2022-08-21T07:15:47;18.20;99.90
16283;DHT22;8249;48.708;9.030;2022-08-21T07:18:15;18.40;99.90
16283;DHT22;8249;48.708;9.030;2022-08-21T07:20:43;18.60;99.90
16283;DHT22;8249;48.708;9.030;2022-08-21T07:23:19;18.80;99.90
16283;DHT22;8249;48.708;9.030;2022-08-21T07:25:47;19.00;99.90
16283;DHT22;8249;48.708;9.030;2022-08-21T07:28:14;19.20;99.90
16283;DHT22;8249;48.708;9.030;2022-08-21T07:30:41;19.30;99.90
16283;DHT22;8249;48.708;9.030;2022-08-21T07:33:08;19.60;99.90
16283;DHT22;8249;48.708;9.030;2022-08-21T07:35:36;19.70;99.90
16283;DHT22;8249;48.708;9.030;2022-08-21T07:38:03;19.90;99.90
16283;DHT22;8249;48.708;9.030;2022-08-21T07:40:30;20.10;99.90
16283;DHT22;8249;48.708;9.030;2022-08-21T07:42:57;20.30;99.90
16283;DHT22;8249;48.708;9.030;2022-08-21T07:45:24;20.30;99.90
16283;DHT22;8249;48.708;9.030;2022-08-21T07:47:51;20.60;99.90
16283;DHT22;8249;48.708;9.030;2022-08-21T07:50:19;20.60;99.90
16283;DHT22;8249;48.708;9.030;2022-08-21T07:52:47;20.80;99.90
16283;DHT22;8249;48.708;9.030;2022-08-21T07:55:17;20.90;99.90
16283;DHT22;8249;48.708;9.030;2022-08-21T07:57:46;21.20;99.90
16283;DHT22;8249;48.708;9.030;2022-08-21T08:00:15;21.40;99.90
16283;DHT22;8249;48.708;9.030;2022-08-21T08:02:45;21.60;99.90
16283;DHT22;8249;48.708;9.030;2022-08-21T08:05:15;21.80;99.90
16283;DHT22;8249;48.708;9.030;2022-08-21T08:07:43;21.90;99.90
16283;DHT22;8249;48.708;9.030;2022-08-21T08:10:12;22.00;99.90
16283;DHT22;8249;48.708;9.030;2022-08-21T08:12:41;22.10;99.90
16283;DHT22;8249;48.708;9.030;2022-08-21T08:15:10;22.20;99.90
16283;DHT22;8249;48.708;9.030;2022-08-21T08:17:38;22.30;99.90
16283;DHT22;8249;48.708;9.030;2022-08-21T08:20:06;22.50;99.90
16283;DHT22;8249;48.708;9.030;2022-08-21T08:22:34;22.50;99.90
16283;DHT22;8249;48.708;9.030;2022-08-21T08:25:01;22.60;99.90
16283;DHT22;8249;48.708;9.030;2022-08-21T08:27:31;22.80;99.90
16283;DHT22;8249;48.708;9.030;2022-08-21T08:29:58;23.00;99.90
16283;DHT22;8249;48.708;9.030;2022-08-21T08:32:25;23.30;99.90
16283;DHT22;8249;48.708;9.030;2022-08-21T08:34:52;23.40;99.90
16283;DHT22;8249;48.708;9.030;2022-08-21T08:37:20;23.50;99.90
16283;DHT22;8249;48.708;9.030;2022-08-21T08:39:48;23.70;99.90
16283;DHT22;8249;48.708;9.030;2022-08-21T08:42:17;24.00;99.90
16283;DHT22;8249;48.708;9.030;2022-08-21T08:44:48;24.20;99.50
16283;DHT22;8249;48.708;9.030;2022-08-21T08:47:17;24.40;99.30
16283;DHT22;8249;48.708;9.030;2022-08-21T08:49:58;24.70;98.60
16283;DHT22;8249;48.708;9.030;2022-08-21T08:52:29;24.90;98.20
16283;DHT22;8249;48.708;9.030;2022-08-21T08:55:02;25.10;97.30
16283;DHT22;8249;48.708;9.030;2022-08-21T08:57:30;25.50;96.50
16283;DHT22;8249;48.708;9.030;2022-08-21T09:00:01;25.70;96.20
16283;DHT22;8249;48.708;9.030;2022-08-21T09:02:29;26.00;95.80
16283;DHT22;8249;48.708;9.030;2022-08-21T09:04:59;26.10;95.50
16283;DHT22;8249;48.708;9.030;2022-08-21T09:07:35;26.70;95.00
16283;DHT22;8249;48.708;9.030;2022-08-21T09:10:11;27.10;93.90
16283;DHT22;8249;48.708;9.030;2022-08-21T09:12:49;27.40;93.50
16283;DHT22;8249;48.708;9.030;2022-08-21T09:15:26;27.60;92.70
16283;DHT22;8249;48.708;9.030;2022-08-21T09:18:16;27.00;92.30
16283;DHT22;8249;48.708;9.030;2022-08-21T09:20:57;27.10;92.00
16283;DHT22;8249;48.708;9.030;2022-08-21T09:23:34;27.10;91.50
16283;DHT22;8249;48.708;9.030;2022-08-21T09:26:08;26.90;90.80
16283;DHT22;8249;48.708;9.030;2022-08-21T09:28:38;26.70;91.20
16283;DHT22;8249;48.708;9.030;2022-08-21T09:31:22;27.00;90.90
16283;DHT22;8249;48.708;9.030;2022-08-21T09:33:50;27.80;90.00
16283;DHT22;8249;48.708;9.030;2022-08-21T09:36:25;28.40;89.30
16283;DHT22;8249;48.708;9.030;2022-08-21T09:38:54;29.00;86.40
16283;DHT22;8249;48.708;9.030;2022-08-21T09:41:26;29.60;87.20
16283;DHT22;8249;48.708;9.030;2022-08-21T09:43:54;30.20;82.70
16283;DHT22;8249;48.708;9.030;2022-08-21T09:46:24;29.90;81.90
16283;DHT22;8249;48.708;9.030;2022-08-21T09:48:53;29.50;81.40
16283;DHT22;8249;48.708;9.030;2022-08-21T09:51:23;29.40;83.00
16283;DHT22;8249;48.708;9.030;2022-08-21T09:53:53;29.70;81.10
16283;DHT22;8249;48.708;9.030;2022-08-21T09:56:27;30.10;81.00
16283;DHT22;8249;48.708;9.030;2022-08-21T09:59:26;30.50;79.70
16283;DHT22;8249;48.708;9.030;2022-08-21T10:01:59;31.00;78.50
16283;DHT22;8249;48.708;9.030;2022-08-21T10:04:30;31.00;77.40
16283;DHT22;8249;48.708;9.030;2022-08-21T10:07:06;31.10;77.30
16283;DHT22;8249;48.708;9.030;2022-08-21T10:09:34;31.50;77.90
16283;DHT22;8249;48.708;9.030;2022-08-21T10:12:15;31.50;75.80
16283;DHT22;8249;48.708;9.030;2022-08-21T10:14:50;32.00;77.20
16283;DHT22;8249;48.708;9.030;2022-08-21T10:17:24;32.30;74.80
16283;DHT22;8249;48.708;9.030;2022-08-21T10:19:59;32.70;72.80
16283;DHT22;8249;48.708;9.030;2022-08-21T10:22:37;32.70;72.80
16283;DHT22;8249;48.708;9.030;2022-08-21T10:25:13;32.60;70.30
16283;DHT22;8249;48.708;9.030;2022-08-21T10:27:51;32.60;71.10
16283;DHT22;8249;48.708;9.030;2022-08-21T10:30:30;33.10;72.60
16283;DHT22;8249;48.708;9.030;2022-08-21T10:35:59;34.20;68.60
16283;DHT22;8249;48.708;9.030;2022-08-21T10:41:30;34.70;67.50
16283;DHT22;8249;48.708;9.030;2022-08-21T10:44:08;34.10;64.30
16283;DHT22;8249;48.708;9.030;2022-08-21T10:46:44;33.60;65.50
16283;DHT22;8249;48.708;9.030;2022-08-21T10:49:22;33.40;67.40
16283;DHT22;8249;48.708;9.030;2022-08-21T10:52:00;33.80;66.90
16283;DHT22;8249;48.708;9.030;2022-08-21T10:54:35;34.30;67.40
16283;DHT22;8249;48.708;9.030;2022-08-21T10:57:11;34.50;66.10
16283;DHT22;8249;48.708;9.030;2022-08-21T10:59:47;34.60;65.90
16283;DHT22;8249;48.708;9.030;2022-08-21T11:02:20;34.30;65.70
16283;DHT22;8249;48.708;9.030;2022-08-21T11:04:56;33.70;67.00
16283;DHT22;8249;48.708;9.030;2022-08-21T11:07:29;33.40;65.90
16283;DHT22;8249;48.708;9.030;2022-08-21T11:10:01;33.00;66.40
16283;DHT22;8249;48.708;9.030;2022-08-21T11:12:34;33.10;65.70
16283;DHT22;8249;48.708;9.030;2022-08-21T11:15:07;32.30;66.90
16283;DHT22;8249;48.708;9.030;2022-08-21T11:17:43;31.30;68.10
16283;DHT22;8249;48.708;9.030;2022-08-21T11:20:21;30.40;69.30
16283;DHT22;8249;48.708;9.030;2022-08-21T11:22:53;29.70;71.30
16283;DHT22;8249;48.708;9.030;2022-08-21T11:25:23;29.20;72.50
16283;DHT22;8249;48.708;9.030;2022-08-21T11:27:55;28.80;73.50
16283;DHT22;8249;48.708;9.030;2022-08-21T11:30:28;28.60;73.80
16283;DHT22;8249;48.708;9.030;2022-08-21T11:33:12;28.50;74.80
16283;DHT22;8249;48.708;9.030;2022-08-21T11:35:49;28.30;75.00
16283;DHT22;8249;48.708;9.030;2022-08-21T11:38:26;28.20;74.20
16283;DHT22;8249;48.708;9.030;2022-08-21T11:41:13;28.20;73.90
16283;DHT22;8249;48.708;9.030;2022-08-21T11:43:45;29.60;75.40
16283;DHT22;8249;48.708;9.030;2022-08-21T11:46:28;31.40;70.30
16283;DHT22;8249;48.708;9.030;2022-08-21T11:49:06;32.50;67.50
16283;DHT22;8249;48.708;9.030;2022-08-21T11:51:41;33.30;67.80
16283;DHT22;8249;48.708;9.030;2022-08-21T11:54:18;34.20;66.40
16283;DHT22;8249;48.708;9.030;2022-08-21T11:56:51;34.90;64.90
16283;DHT22;8249;48.708;9.030;2022-08-21T11:59:23;35.10;64.50
16283;DHT22;8249;48.708;9.030;2022-08-21T12:01:50;35.70;64.40
16283;DHT22;8249;48.708;9.030;2022-08-21T12:04:22;36.50;63.10
16283;DHT22;8249;48.708;9.030;2022-08-21T12:06:54;37.20;61.40
16283;DHT22;8249;48.708;9.030;2022-08-21T12:09:31;37.50;61.30
16283;DHT22;8249;48.708;9.030;2022-08-21T12:12:04;38.00;60.80
16283;DHT22;8249;48.708;9.030;2022-08-21T12:14:39;37.90;60.40
16283;DHT22;8249;48.708;9.030;2022-08-21T12:17:08;37.60;59.70
16283;DHT22;8249;48.708;9.030;2022-08-21T12:19:35;37.80;59.70
16283;DHT22;8249;48.708;9.030;2022-08-21T12:22:11;38.10;60.20
16283;DHT22;8249;48.708;9.030;2022-08-21T12:24:40;37.90;58.40
16283;DHT22;8249;48.708;9.030;2022-08-21T12:27:21;37.00;58.90
16283;DHT22;8249;48.708;9.030;2022-08-21T12:29:53;35.70;60.20
16283;DHT22;8249;48.708;9.030;2022-08-21T12:32:25;34.10;61.00
16283;DHT22;8249;48.708;9.030;2022-08-21T12:34:57;32.70;63.60
16283;DHT22;8249;48.708;9.030;2022-08-21T12:37:37;31.70;65.10
16283;DHT22;8249;48.708;9.030;2022-08-21T12:40:11;30.80;66.30
16283;DHT22;8249;48.708;9.030;2022-08-21T12:42:45;30.10;67.40
16283;DHT22;8249;48.708;9.030;2022-08-21T12:45:19;29.60;68.70
16283;DHT22;8249;48.708;9.030;2022-08-21T12:47:50;29.20;68.70
16283;DHT22;8249;48.708;9.030;2022-08-21T12:50:21;28.80;69.90
16283;DHT22;8249;48.708;9.030;2022-08-21T12:52:58;28.50;71.20
16283;DHT22;8249;48.708;9.030;2022-08-21T12:55:28;28.30;71.60
16283;DHT22;8249;48.708;9.030;2022-08-21T12:57:55;28.10;72.80
16283;DHT22;8249;48.708;9.030;2022-08-21T13:00:24;27.90;72.60
16283;DHT22;8249;48.708;9.030;2022-08-21T13:02:53;27.80;72.80
16283;DHT22;8249;48.708;9.030;2022-08-21T13:05:28;27.60;73.20
16283;DHT22;8249;48.708;9.030;2022-08-21T13:07:57;27.40;74.30
16283;DHT22;8249;48.708;9.030;2022-08-21T13:10:26;27.30;74.40
16283;DHT22;8249;48.708;9.030;2022-08-21T13:12:56;27.30;74.30
16283;DHT22;8249;48.708;9.030;2022-08-21T13:15:26;27.30;74.50
16283;DHT22;8249;48.708;9.030;2022-08-21T13:17:54;27.20;74.30
16283;DHT22;8249;48.708;9.030;2022-08-21T13:20:29;27.10;74.90
16283;DHT22;8249;48.708;9.030;2022-08-21T13:22:59;27.10;74.30
16283;DHT22;8249;48.708;9.030;2022-08-21T13:25:29;27.10;75.00
16283;DHT22;8249;48.708;9.030;2022-08-21T13:28:00;27.10;74.00
16283;DHT22;8249;48.708;9.030;2022-08-21T13:30:28;27.10;73.70
16283;DHT22;8249;48.708;9.030;2022-08-21T13:32:57;27.50;75.50
16283;DHT22;8249;48.708;9.030;2022-08-21T13:35:29;29.50;72.30
16283;DHT22;8249;48.708;9.030;2022-08-21T13:37:59;30.90;68.80
16283;DHT22;8249;48.708;9.030;2022-08-21T13:40:30;32.20;67.00
16283;DHT22;8249;48.708;9.030;2022-08-21T13:43:00;33.00;64.80
16283;DHT22;8249;48.708;9.030;2022-08-21T13:45:31;33.80;63.90
16283;DHT22;8249;48.708;9.030;2022-08-21T13:48:00;34.40;62.80
16283;DHT22;8249;48.708;9.030;2022-08-21T13:50:28;35.10;62.90
16283;DHT22;8249;48.708;9.030;2022-08-21T13:52:59;36.30;60.10
16283;DHT22;8249;48.708;9.030;2022-08-21T13:55:35;36.80;60.10
16283;DHT22;8249;48.708;9.030;2022-08-21T13:58:04;37.00;58.40
16283;DHT22;8249;48.708;9.030;2022-08-21T14:00:34;37.00;59.10
16283;DHT22;8249;48.708;9.030;2022-08-21T14:03:06;37.10;58.40
16283;DHT22;8249;48.708;9.030;2022-08-21T14:05:37;37.20;59.00
16283;DHT22;8249;48.708;9.030;2022-08-21T14:08:10;37.40;58.10
16283;DHT22;8249;48.708;9.030;2022-08-21T14:10:42;37.20;57.70
16283;DHT22;8249;48.708;9.030;2022-08-21T14:13:30;36.20;58.90
16283;DHT22;8249;48.708;9.030;2022-08-21T14:16:00;35.10;59.70
16283;DHT22;8249;48.708;9.030;2022-08-21T14:18:28;34.40;61.00
16283;DHT22;8249;48.708;9.030;2022-08-21T14:21:04;33.40;61.40
16283;DHT22;8249;48.708;9.030;2022-08-21T14:23:33;32.30;62.40
16283;DHT22;8249;48.708;9.030;2022-08-21T14:26:02;31.40;64.50
16283;DHT22;8249;48.708;9.030;2022-08-21T14:28:32;30.80;63.60
16283;DHT22;8249;48.708;9.030;2022-08-21T14:31:12;30.80;64.90
16283;DHT22;8249;48.708;9.030;2022-08-21T14:33:39;32.40;64.20
16283;DHT22;8249;48.708;9.030;2022-08-21T14:36:07;33.80;60.60
16283;DHT22;8249;48.708;9.030;2022-08-21T14:38:37;34.90;59.50
16283;DHT22;8249;48.708;9.030;2022-08-21T14:41:11;35.70;58.40
16283;DHT22;8249;48.708;9.030;2022-08-21T14:43:42;36.40;59.10
16283;DHT22;8249;48.708;9.030;2022-08-21T14:46:09;37.20;57.80
16283;DHT22;8249;48.708;9.030;2022-08-21T14:48:36;37.60;55.40
16283;DHT22;8249;48.708;9.030;2022-08-21T14:51:03;37.80;55.00
16283;DHT22;8249;48.708;9.030;2022-08-21T14:53:30;37.80;55.90
16283;DHT22;8249;48.708;9.030;2022-08-21T14:55:58;37.50;55.90
16283;DHT22;8249;48.708;9.030;2022-08-21T14:58:33;37.40;55.40
16283;DHT22;8249;48.708;9.030;2022-08-21T15:01:01;37.60;54.90
16283;DHT22;8249;48.708;9.030;2022-08-21T15:03:29;37.90;56.20
16283;DHT22;8249;48.708;9.030;2022-08-21T15:05:56;37.90;56.10
16283;DHT22;8249;48.708;9.030;2022-08-21T15:08:24;38.40;55.60
16283;DHT22;8249;48.708;9.030;2022-08-21T15:10:52;38.20;54.20
16283;DHT22;8249;48.708;9.030;2022-08-21T15:13:21;37.40;54.30
16283;DHT22;8249;48.708;9.030;2022-08-21T15:15:49;36.00;55.70
16283;DHT22;8249;48.708;9.030;2022-08-21T15:18:18;34.00;57.50
16283;DHT22;8249;48.708;9.030;2022-08-21T15:20:45;32.30;59.70
16283;DHT22;8249;48.708;9.030;2022-08-21T15:23:13;31.20;61.20
16283;DHT22;8249;48.708;9.030;2022-08-21T15:25:41;30.30;62.80
16283;DHT22;8249;48.708;9.030;2022-08-21T15:28:08;29.60;64.50
16283;DHT22;8249;48.708;9.030;2022-08-21T15:30:39;29.00;64.30
16283;DHT22;8249;48.708;9.030;2022-08-21T15:33:06;28.50;65.30
16283;DHT22;8249;48.708;9.030;2022-08-21T15:35:34;28.10;66.30
16283;DHT22;8249;48.708;9.030;2022-08-21T15:38:02;27.70;67.40
16283;DHT22;8249;48.708;9.030;2022-08-21T15:40:29;27.50;66.90
16283;DHT22;8249;48.708;9.030;2022-08-21T15:42:59;27.60;67.00
16283;DHT22;8249;48.708;9.030;2022-08-21T15:45:28;27.60;66.90
16283;DHT22;8249;48.708;9.030;2022-08-21T15:47:57;27.50;67.10
16283;DHT22;8249;48.708;9.030;2022-08-21T15:50:25;27.20;68.00
16283;DHT22;8249;48.708;9.030;2022-08-21T15:52:52;27.00;68.50
16283;DHT22;8249;48.708;9.030;2022-08-21T15:55:20;26.90;68.40
16283;DHT22;8249;48.708;9.030;2022-08-21T15:57:48;26.70;68.90
16283;DHT22;8249;48.708;9.030;2022-08-21T16:00:19;26.60;70.00
16283;DHT22;8249;48.708;9.030;2022-08-21T16:02:49;26.50;71.00
16283;DHT22;8249;48.708;9.030;2022-08-21T16:05:19;26.40;70.50
16283;DHT22;8249;48.708;9.030;2022-08-21T16:07:47;26.30;71.50